Oakwood, Ohio
Current Conditions -  °F | °C
As of 9:53 AM on Friday 28 Nov 2014 (Local Time) from KDFI Reporting Station
Overcast Overcast  
Wind Chill: 16°   Ceiling: 9500
Heat Index: 24°   Visibility: 10mi
Dew Point: 15°   Wind: 7mph
Humidity: 69%   Direction: 180°S
Pressure: 30.34"   Gusts: NA
Location:  41.1°N, 84.38°W
Report Text: KDFI 281453Z AUTO 18006KT 10SM OVC095 M04/M09 A3034 RMK AO2 SLP283 T10441094 58013
Loading
Personal Weather Stations






























Interactive Weather Map New forecast layout! Learn more

10-Day Weather Forecast

Advertisements
Track Severe Weather on mobile